• Join FlightAware (Why Join?)
  • Login
  • US Flag 
09:09AM EDT


 

Airport Tracker/Info


-or-


 

Live Flight TrackerFlight Track Log ✈ N509QS ✈ 14-Jul-2013 ✈ KROC - KPSF

Flight Track Log - Related Links

Times and Time Zones

All times are in EDT time to prevent confusion due to time zone crossing. See the N509QS flight status page for this flight to view local times or setup timezone preferences in your user account.

Time Position Orientation Groundspeed Altitude Reporting Facility
EDT Latitude Longitude Course Direction KTS MPH feet Rate Location/Type
02:00PM 43.0700 -77.7725 228° Southwest 251 289 6,900  Level Cleveland Center
02:01PM 42.9797 -77.7397 165° South 298 343 10,000 2,220 Climbing Cleveland Center
02:02PM 42.9428 -77.5994 110° East 307 353 12,100 2,760 Climbing Cleveland Center
02:03PM 42.9136 -77.4478 105° East 351 404 15,600 1,860 Climbing Cleveland Center
02:06PM 42.8325 -77.0417 105° East 441 507 19,000 900 Climbing Boston Center
02:07PM 42.8144 -76.8647 98° East 441 507 19,000  Level Boston Center
02:08PM 42.8125 -76.6975 91° East 436 502 19,000  Level Boston Center
02:09PM 42.8097 -76.5472 91° East 441 507 19,000  Level Boston Center
02:10PM 42.8036 -76.3683 93° East 435 501 19,000  Level Boston Center
02:11PM 42.7878 -76.2175 98° East 435 501 19,000  Level Boston Center
02:12PM 42.7722 -76.0581 98° East 435 501 19,000  Level Boston Center
02:13PM 42.7522 -75.8928 99° East 435 501 19,000  Level Boston Center
02:14PM 42.7325 -75.7219 99° East 435 501 19,000  Level Boston Center
02:15PM 42.7106 -75.5286 99° East 435 501 19,000 -420 Level Boston Center
02:16PM 42.6900 -75.3667 100° East 435 501 18,100 -1,200 Descending Boston Center
02:17PM 42.6731 -75.2050 98° East 435 501 16,700 -1,740 Descending Boston Center
02:18PM 42.6539 -75.0458 99° East 429 494 14,400 -2,160 Descending Boston Center
02:19PM 42.6253 -74.8331 100° East 409 471 11,800 -1,740 Descending Boston Center
02:20PM 42.6111 -74.7139 99° East 412 474 11,000 -480 Descending Boston Center
02:21PM 42.5956 -74.5525 97° East 406 467 11,000 -300 Level Boston Center
02:22PM 42.5853 -74.4253 96° East 390 449 10,500 -840 Descending Boston Center
02:23PM 42.5728 -74.3008 98° East 310 357 9,400 -1,200 Descending Boston Center
02:24PM 42.5661 -74.1908 95° East 305 351 8,100 -1,200 Descending Boston Center
02:25PM 42.5575 -74.0692 95° East 296 341 7,000 -600 Descending Boston Center
02:26PM 42.5467 -73.9592 98° East 295 339 7,000  Level Boston Center
02:27PM 42.5375 -73.8461 96° East 292 336 7,000 -120 Level Boston Center
02:28PM 42.5283 -73.7417 97° East 292 336 6,800 -780 Descending Boston Center
02:29PM 42.5194 -73.6203 96° East 297 342 5,500 -1,260 Descending Boston Center
02:30PM 42.5097 -73.5272 98° East 286 329 4,300 -780 Descending Boston Center
02:31PM 42.5003 -73.4200 97° East 268 308 4,000 -240 Descending Boston Center
02:32PM 42.4925 -73.3494 98° East 253 291 3,900 -720 Descending Boston Center
02:33PM 42.4786 -73.2564 101° East 225 259 2,600 -780 Descending Boston Center
02:34PM 42.4647 -73.1775 103° East 213 245 2,400 -240 Descending Boston Center
02:37PM 42.4167 -73.2833 114° Southeast  Level FlightAware Approximate
02:44PM 42.4268 -73.2929 114° Southeast  Level Estimated
02:45PM 42.4268 -73.2929 114° Southeast  Level Estimated
02:46PM 42.4268 -73.2929 114° Southeast  Level Estimated
02:47PM 42.4268 -73.2929 114° Southeast  Level Estimated
02:48PM 42.4268 -73.2929 114° Southeast  Level Estimated
02:49PM 42.4268 -73.2929 114° Southeast  Level Estimated